Time;durP1;ratioP1;P1;durP2;ratioP2;P2;SDS_P1;SDS_P2;PMS_P1;PMS_P2;Temp;Humidity;BMP_temperature;BMP_pressure;BME280_temperature;BME280_humidity;BME280_pressure;Samples;Min_cycle;Max_cycle;Signal;HPM_P1;HPM_P2
2023/05/16 00:01:45;;;;;;;4.87;3.13;;;20.90;91.30;;;;;;4983003;28;20453;-87
2023/05/16 00:04:10;;;;;;;5.30;3.33;;;20.90;91.30;;;;;;4983172;28;20204;-87
2023/05/16 00:06:36;;;;;;;3.93;3.57;;;20.90;91.30;;;;;;4967065;28;20787;-86
2023/05/16 00:09:02;;;;;;;5.30;3.70;;;20.80;91.30;;;;;;4983054;28;20178;-87
2023/05/16 00:11:28;;;;;;;3.70;3.13;;;20.80;91.30;;;;;;4982749;28;20478;-88
2023/05/16 00:13:54;;;;;;;4.90;3.30;;;20.80;91.30;;;;;;4982720;28;20440;-87
2023/05/16 00:16:20;;;;;;;3.93;3.10;;;20.80;91.30;;;;;;4982418;28;20466;-87
2023/05/16 00:18:47;;;;;;;3.70;3.07;;;20.70;91.30;;;;;;4982968;28;20433;-88
2023/05/16 00:21:13;;;;;;;3.97;3.57;;;20.70;91.30;;;;;;4982559;28;20453;-88
2023/05/16 00:23:39;;;;;;;3.80;3.40;;;20.70;91.30;;;;;;4966627;28;20430;-88
2023/05/16 00:26:05;;;;;;;3.37;3.07;;;20.70;91.30;;;;;;4982383;28;20422;-88
2023/05/16 00:28:31;;;;;;;3.20;3.00;;;20.60;91.30;;;;;;4982481;28;20468;-88
2023/05/16 00:30:59;;;;;;;2.73;2.53;;;20.60;91.30;;;;;;4982554;28;20433;-88
2023/05/16 00:33:25;;;;;;;4.20;3.70;;;20.70;91.30;;;;;;4966204;28;20441;-87
2023/05/16 00:35:52;;;;;;;4.83;3.10;;;20.60;91.30;;;;;;4982450;28;20413;-88
2023/05/16 00:38:19;;;;;;;3.77;3.00;;;20.60;91.30;;;;;;4966710;28;20440;-87
2023/05/16 00:40:45;;;;;;;3.13;2.30;;;20.60;91.30;;;;;;4966876;28;20952;-90
2023/05/16 00:43:11;;;;;;;5.00;2.67;;;20.60;91.30;;;;;;4966618;28;20535;-89
2023/05/16 00:45:39;;;;;;;2.80;2.43;;;20.50;91.20;;;;;;4966831;28;20809;-88
2023/05/16 00:48:05;;;;;;;2.37;2.10;;;20.50;91.20;;;;;;4966076;28;20461;-89
2023/05/16 00:50:36;;;;;;;2.63;2.40;;;20.50;91.20;;;;;;4965359;28;20519;-88
2023/05/16 00:53:03;;;;;;;3.53;2.20;;;20.50;91.20;;;;;;4981728;28;20531;-83
2023/05/16 00:55:29;;;;;;;3.30;1.93;;;20.40;91.10;;;;;;4942999;28;20420;-83
2023/05/16 00:57:58;;;;;;;2.30;2.10;;;20.40;91.10;;;;;;4979176;28;20460;-83
2023/05/16 01:00:27;;;;;;;3.17;2.40;;;20.30;91.00;;;;;;4981509;28;20448;-84
2023/05/16 01:02:56;;;;;;;2.90;2.10;;;20.30;91.10;;;;;;4981733;28;20410;-84
2023/05/16 01:05:27;;;;;;;3.43;2.23;;;20.30;91.10;;;;;;4998227;28;20407;-83
2023/05/16 01:07:53;;;;;;;3.90;2.20;;;20.30;91.10;;;;;;5014836;28;20467;-84
2023/05/16 01:10:19;;;;;;;2.20;2.00;;;20.30;91.10;;;;;;4987968;28;20459;-84
2023/05/16 01:13:16;;;;;;;2.17;1.97;;;20.20;91.00;;;;;;4977846;28;20459;-84
2023/05/16 01:15:59;;;;;;;3.63;2.73;;;20.20;91.00;;;;;;4974493;28;20519;-84
2023/05/16 01:18:36;;;;;;;3.03;2.00;;;20.20;91.00;;;;;;5014497;28;20620;-82
2023/05/16 01:21:31;;;;;;;2.03;1.83;;;20.20;91.00;;;;;;4965571;28;20425;-83
2023/05/16 01:24:12;;;;;;;4.00;2.33;;;20.10;91.00;;;;;;4981264;28;20403;-83
2023/05/16 01:26:44;;;;;;;3.80;2.50;;;20.10;91.00;;;;;;4962886;28;20784;-83
2023/05/16 01:29:10;;;;;;;5.50;2.43;;;20.10;91.00;;;;;;4983556;28;20764;-83
2023/05/16 01:31:36;;;;;;;3.90;2.73;;;20.10;91.10;;;;;;4997301;28;20445;-83
2023/05/16 01:34:04;;;;;;;3.43;2.73;;;20.10;91.10;;;;;;4980873;28;20444;-83
2023/05/16 01:36:43;;;;;;;3.90;2.70;;;20.10;91.10;;;;;;4997652;28;20462;-83
2023/05/16 01:39:37;;;;;;;3.53;2.70;;;20.00;91.10;;;;;;5014413;28;20445;-82
2023/05/16 01:42:05;;;;;;;3.40;2.93;;;20.00;91.10;;;;;;4972532;28;20591;-83
2023/05/16 01:44:51;;;;;;;3.80;3.00;;;20.00;91.10;;;;;;4978076;28;20476;-83
2023/05/16 01:47:21;;;;;;;5.00;2.90;;;20.00;91.10;;;;;;4977978;28;20498;-83
2023/05/16 01:49:59;;;;;;;2.70;2.50;;;20.00;91.10;;;;;;4961815;28;20426;-83
2023/05/16 01:52:36;;;;;;;6.37;3.00;;;19.90;91.00;;;;;;4962191;28;20793;-83
2023/05/16 01:55:03;;;;;;;4.97;2.90;;;20.00;91.20;;;;;;4978223;28;20406;-83
2023/05/16 01:57:30;;;;;;;4.73;3.00;;;19.90;91.10;;;;;;4975757;28;20977;-83
2023/05/16 01:59:59;;;;;;;4.20;3.03;;;19.90;91.10;;;;;;4981331;28;20554;-82
2023/05/16 02:02:27;;;;;;;4.23;3.00;;;19.90;91.20;;;;;;5000009;28;20410;-83
2023/05/16 02:04:56;;;;;;;4.60;3.07;;;19.90;91.20;;;;;;4965276;28;20448;-83
2023/05/16 02:07:24;;;;;;;3.93;2.73;;;19.90;91.20;;;;;;4965033;28;20918;-82
2023/05/16 02:09:50;;;;;;;7.10;2.93;;;19.90;91.20;;;;;;4965539;28;20444;-83
2023/05/16 02:12:18;;;;;;;6.20;3.20;;;19.90;91.20;;;;;;4981362;28;20905;-83
2023/05/16 02:14:46;;;;;;;4.40;3.00;;;19.80;91.20;;;;;;4965210;28;20226;-83
2023/05/16 02:17:12;;;;;;;4.27;3.37;;;19.80;91.10;;;;;;4948878;28;20469;-83
2023/05/16 02:19:40;;;;;;;8.80;4.70;;;19.80;91.10;;;;;;4998061;28;20430;-82
2023/05/16 02:22:13;;;;;;;5.90;3.77;;;19.80;91.10;;;;;;4963588;28;20207;-83
2023/05/16 02:24:44;;;;;;;5.40;3.23;;;19.80;91.10;;;;;;4965317;28;20456;-83
2023/05/16 02:27:13;;;;;;;6.77;3.10;;;19.70;91.10;;;;;;4964932;28;20756;-83
2023/05/16 02:29:39;;;;;;;7.33;3.50;;;19.70;91.10;;;;;;4981192;28;20421;-84
2023/05/16 02:32:07;;;;;;;8.60;3.30;;;19.70;91.10;;;;;;4948685;28;20438;-83
2023/05/16 02:34:33;;;;;;;7.87;3.07;;;19.70;91.00;;;;;;4997426;28;20193;-83
2023/05/16 02:37:02;;;;;;;6.50;3.50;;;19.70;91.00;;;;;;4980681;28;20560;-82
2023/05/16 02:39:28;;;;;;;8.23;3.37;;;19.70;91.00;;;;;;4964680;28;20928;-83
2023/05/16 02:41:54;;;;;;;4.20;3.57;;;19.70;91.00;;;;;;4965046;28;20895;-84
2023/05/16 02:44:20;;;;;;;6.70;2.97;;;19.60;91.00;;;;;;4980910;28;20444;-83
2023/05/16 02:46:48;;;;;;;5.53;3.80;;;19.60;91.00;;;;;;4981579;28;20513;-83
2023/05/16 02:49:14;;;;;;;7.03;3.30;;;19.60;91.00;;;;;;5000651;28;20432;-83
2023/05/16 02:51:40;;;;;;;4.90;3.23;;;19.50;90.90;;;;;;4967876;28;20424;-84
2023/05/16 02:54:08;;;;;;;9.10;3.10;;;19.50;90.90;;;;;;4999980;28;20416;-83
2023/05/16 02:56:35;;;;;;;5.77;3.30;;;19.50;90.90;;;;;;4949047;28;20571;-84
2023/05/16 02:59:03;;;;;;;7.73;3.30;;;19.50;90.80;;;;;;4974865;28;20754;-83
2023/05/16 03:01:31;;;;;;;6.20;2.97;;;19.50;90.80;;;;;;5000517;28;20823;-84
2023/05/16 03:03:57;;;;;;;5.43;3.10;;;19.40;90.80;;;;;;4983731;28;20506;-84
2023/05/16 03:06:26;;;;;;;5.73;3.13;;;19.50;90.90;;;;;;5016916;28;20182;-84
2023/05/16 03:08:51;;;;;;;5.57;3.03;;;19.40;90.80;;;;;;4985622;28;20442;-84
2023/05/16 03:11:21;;;;;;;5.03;2.90;;;19.40;90.80;;;;;;4964549;28;20433;-84
2023/05/16 03:13:47;;;;;;;5.60;2.80;;;19.40;90.80;;;;;;4986096;28;20444;-84
2023/05/16 03:16:16;;;;;;;8.20;3.17;;;19.30;90.70;;;;;;4967102;28;20492;-83
2023/05/16 03:18:42;;;;;;;6.50;3.23;;;19.30;90.60;;;;;;4987035;28;20447;-85
2023/05/16 03:21:12;;;;;;;11.13;3.83;;;19.30;90.60;;;;;;4963902;28;20434;-84
2023/05/16 03:23:43;;;;;;;8.20;3.40;;;19.30;90.60;;;;;;4963971;28;20442;-85
2023/05/16 03:26:09;;;;;;;7.13;3.40;;;19.30;90.60;;;;;;4980023;28;20414;-85
2023/05/16 03:28:38;;;;;;;10.10;3.03;;;19.20;90.50;;;;;;4980310;28;20444;-84
2023/05/16 03:31:03;;;;;;;8.40;3.03;;;19.20;90.50;;;;;;4980709;28;20409;-85
2023/05/16 03:33:34;;;;;;;9.33;3.80;;;19.20;90.40;;;;;;4979510;28;20206;-84
2023/05/16 03:36:02;;;;;;;7.70;2.90;;;19.20;90.40;;;;;;4963469;28;20457;-84
2023/05/16 03:38:28;;;;;;;7.77;3.40;;;19.10;90.30;;;;;;4979719;28;20406;-84
2023/05/16 03:40:55;;;;;;;9.60;3.30;;;19.10;90.30;;;;;;4990962;28;20885;-84
2023/05/16 03:43:23;;;;;;;7.37;3.30;;;19.10;90.40;;;;;;4982673;28;20455;-84
2023/05/16 03:45:49;;;;;;;5.10;3.10;;;19.10;90.30;;;;;;5016304;28;20189;-84
2023/05/16 03:48:15;;;;;;;7.03;3.17;;;19.10;90.30;;;;;;5015833;28;20431;-84
2023/05/16 03:50:43;;;;;;;12.40;3.20;;;19.10;90.30;;;;;;4974563;28;20269;-85
2023/05/16 03:53:11;;;;;;;8.40;3.83;;;19.00;90.20;;;;;;4996574;28;20421;-84
2023/05/16 03:55:37;;;;;;;7.10;2.90;;;19.00;90.20;;;;;;4979294;28;20456;-84
2023/05/16 03:58:07;;;;;;;11.17;3.23;;;19.00;90.10;;;;;;4997233;28;20453;-84
2023/05/16 04:00:35;;;;;;;6.87;3.07;;;19.00;90.10;;;;;;4966738;28;20195;-84
2023/05/16 04:03:01;;;;;;;7.13;2.50;;;19.00;90.20;;;;;;4996537;28;20483;-84
2023/05/16 04:05:28;;;;;;;7.07;3.03;;;19.00;90.20;;;;;;4998685;28;20928;-85
2023/05/16 04:07:54;;;;;;;5.70;2.77;;;18.90;90.20;;;;;;4998551;28;20431;-84
2023/05/16 04:10:22;;;;;;;5.27;2.50;;;18.90;90.20;;;;;;4982717;28;20427;-85
2023/05/16 04:12:50;;;;;;;6.93;2.90;;;18.90;90.20;;;;;;4998666;28;20534;-84
2023/05/16 04:15:16;;;;;;;8.60;3.10;;;18.90;90.20;;;;;;5015912;28;20772;-85
2023/05/16 04:18:21;;;;;;;9.13;3.33;;;18.90;90.20;;;;;;4974780;28;21015;-84
2023/05/16 04:20:47;;;;;;;7.73;2.73;;;18.90;90.20;;;;;;4926871;28;20431;-84
2023/05/16 04:23:15;;;;;;;9.03;3.87;;;18.90;90.30;;;;;;4953544;28;20175;-84
2023/05/16 04:25:46;;;;;;;9.80;2.80;;;18.80;90.20;;;;;;4939418;29;20431;-85
2023/05/16 04:28:15;;;;;;;5.40;2.77;;;18.80;90.30;;;;;;4955487;28;20827;-84
2023/05/16 04:30:43;;;;;;;6.13;3.03;;;18.80;90.20;;;;;;4939403;29;20757;-85
2023/05/16 04:33:11;;;;;;;11.13;3.57;;;18.80;90.20;;;;;;4923439;29;20434;-84
2023/05/16 04:35:37;;;;;;;11.40;3.30;;;18.80;90.30;;;;;;4939104;29;20467;-84
2023/05/16 04:38:03;;;;;;;5.30;3.07;;;18.70;90.20;;;;;;4938909;29;20513;-84
2023/05/16 04:40:31;;;;;;;6.37;3.00;;;18.70;90.10;;;;;;4923261;29;20619;-85
2023/05/16 04:43:00;;;;;;;5.80;3.20;;;18.70;90.10;;;;;;4944083;28;20461;-84
2023/05/16 04:45:25;;;;;;;8.37;3.57;;;18.70;90.10;;;;;;4965580;28;20469;-85
2023/05/16 04:47:52;;;;;;;10.77;3.53;;;18.70;90.10;;;;;;4929823;28;20489;-84
2023/05/16 04:50:17;;;;;;;6.90;3.50;;;18.70;90.10;;;;;;4978620;28;20592;-84
2023/05/16 04:52:46;;;;;;;6.87;3.60;;;18.60;90.00;;;;;;4948003;28;20433;-84
2023/05/16 04:55:12;;;;;;;6.87;3.43;;;18.60;90.10;;;;;;4998004;28;20454;-84
2023/05/16 04:57:40;;;;;;;7.70;3.03;;;18.60;90.00;;;;;;5014353;28;20467;-84
2023/05/16 05:00:07;;;;;;;5.50;2.90;;;18.60;90.00;;;;;;4977767;28;21172;-84
2023/05/16 05:02:33;;;;;;;8.33;3.50;;;18.60;90.00;;;;;;4958204;28;20442;-83
2023/05/16 05:04:59;;;;;;;6.37;2.93;;;18.50;90.00;;;;;;4995458;28;20429;-83
2023/05/16 05:07:28;;;;;;;8.17;3.33;;;18.60;90.00;;;;;;4962269;28;20941;-84
2023/05/16 05:09:54;;;;;;;7.03;3.30;;;18.50;89.90;;;;;;4962257;28;20202;-84
2023/05/16 05:12:21;;;;;;;8.67;3.27;;;18.50;89.80;;;;;;4962417;28;20448;-84
2023/05/16 05:14:50;;;;;;;7.60;3.10;;;18.50;90.00;;;;;;4994668;28;20766;-83
2023/05/16 05:17:25;;;;;;;9.43;3.20;;;18.50;90.00;;;;;;4997419;28;20482;-84
2023/05/16 05:19:55;;;;;;;6.30;2.77;;;18.50;90.00;;;;;;4982666;28;20173;-84
2023/05/16 05:22:24;;;;;;;9.30;3.40;;;18.40;89.90;;;;;;4997486;28;20487;-83
2023/05/16 05:24:50;;;;;;;8.33;2.87;;;18.40;89.90;;;;;;4963858;28;20444;-83
2023/05/16 05:27:18;;;;;;;5.43;2.90;;;18.40;89.80;;;;;;4958676;28;20445;-83
2023/05/16 05:29:44;;;;;;;6.00;3.00;;;18.40;89.80;;;;;;4990406;28;20525;-83
2023/05/16 05:32:13;;;;;;;6.93;2.83;;;18.40;89.80;;;;;;5014566;28;20173;-85
2023/05/16 05:34:40;;;;;;;9.97;3.30;;;18.40;89.80;;;;;;4964672;28;20436;-84
2023/05/16 05:37:06;;;;;;;7.70;2.57;;;18.30;89.80;;;;;;4965465;28;20820;-84
2023/05/16 05:39:32;;;;;;;13.43;3.00;;;18.30;89.80;;;;;;4981830;28;20177;-83
2023/05/16 05:41:58;;;;;;;9.10;3.20;;;18.30;90.00;;;;;;4982136;28;20443;-85
2023/05/16 05:44:24;;;;;;;5.10;2.97;;;18.30;89.80;;;;;;4949660;28;20451;-83
2023/05/16 05:46:50;;;;;;;7.67;2.50;;;18.30;89.70;;;;;;4965773;28;20275;-84
2023/05/16 05:49:22;;;;;;;3.87;2.10;;;18.20;89.60;;;;;;4966259;28;20425;-84
2023/05/16 05:51:53;;;;;;;5.97;2.60;;;18.30;89.50;;;;;;4981952;28;20411;-83
2023/05/16 05:54:22;;;;;;;5.83;3.07;;;18.20;89.40;;;;;;4981583;28;20432;-83
2023/05/16 05:56:48;;;;;;;7.90;2.90;;;18.20;89.30;;;;;;4965501;28;20527;-83
2023/05/16 05:59:14;;;;;;;8.90;2.90;;;18.20;89.20;;;;;;4998542;28;20467;-84
2023/05/16 06:01:41;;;;;;;7.80;2.83;;;18.20;89.30;;;;;;4984901;28;20463;-84
2023/05/16 06:04:10;;;;;;;10.43;2.70;;;18.10;89.20;;;;;;4995645;28;20835;-83
2023/05/16 06:06:36;;;;;;;4.83;2.37;;;18.10;89.20;;;;;;5001535;28;20490;-84
2023/05/16 06:09:02;;;;;;;5.33;2.77;;;18.10;89.20;;;;;;5001080;28;20503;-84
2023/05/16 06:11:28;;;;;;;5.20;2.70;;;18.10;89.40;;;;;;5018215;28;20507;-84
2023/05/16 06:13:54;;;;;;;8.40;2.80;;;18.10;89.40;;;;;;4967864;28;20854;-84
2023/05/16 06:16:24;;;;;;;4.80;2.87;;;18.10;89.40;;;;;;5017733;28;20299;-83
2023/05/16 06:18:54;;;;;;;4.70;2.60;;;18.10;89.50;;;;;;4985139;28;20230;-84
2023/05/16 06:21:20;;;;;;;6.67;2.40;;;18.10;89.60;;;;;;4984601;28;20413;-84
2023/05/16 06:23:46;;;;;;;6.73;2.47;;;18.00;89.50;;;;;;5017760;28;20426;-84
2023/05/16 06:26:12;;;;;;;6.00;2.80;;;18.00;89.50;;;;;;4985243;28;20446;-84
2023/05/16 06:28:38;;;;;;;9.03;2.90;;;18.00;89.50;;;;;;4965357;28;20445;-85
2023/05/16 06:31:04;;;;;;;8.20;2.63;;;18.00;89.50;;;;;;4981240;28;20297;-85
2023/05/16 06:33:30;;;;;;;6.10;2.70;;;18.00;89.60;;;;;;4961783;28;20933;-85
2023/05/16 06:35:56;;;;;;;7.10;2.40;;;18.00;89.60;;;;;;4946433;28;20418;-85
2023/05/16 06:38:22;;;;;;;5.53;2.50;;;18.00;89.50;;;;;;4953123;28;20627;-86
2023/05/16 06:40:51;;;;;;;4.50;2.10;;;18.00;89.30;;;;;;4954317;28;20822;-85
2023/05/16 06:43:19;;;;;;;5.77;2.63;;;18.00;89.50;;;;;;4946596;28;20910;-85
2023/05/16 06:45:45;;;;;;;5.00;2.47;;;17.90;89.40;;;;;;4951951;28;20460;-85
2023/05/16 06:48:16;;;;;;;5.20;2.80;;;17.90;89.40;;;;;;4997540;28;20436;-84
2023/05/16 06:50:49;;;;;;;4.70;2.60;;;17.90;89.30;;;;;;4965303;28;20746;-85
2023/05/16 06:53:15;;;;;;;6.10;2.30;;;17.90;89.50;;;;;;4977529;28;20448;-85
2023/05/16 06:55:41;;;;;;;7.60;2.80;;;17.90;89.50;;;;;;4978441;28;20807;-85
2023/05/16 06:58:08;;;;;;;7.57;2.70;;;17.90;89.60;;;;;;4978080;28;20210;-86
2023/05/16 07:00:36;;;;;;;4.37;2.27;;;17.90;89.70;;;;;;4945603;28;20440;-86
2023/05/16 07:03:02;;;;;;;5.90;2.63;;;18.00;89.90;;;;;;4963511;28;20432;-85
2023/05/16 07:05:28;;;;;;;7.30;2.80;;;17.90;89.70;;;;;;4980689;28;20752;-86
2023/05/16 07:07:56;;;;;;;6.47;2.70;;;17.90;89.70;;;;;;4986456;28;20443;-87
2023/05/16 07:10:27;;;;;;;5.90;2.50;;;17.90;89.80;;;;;;4999931;28;20459;-87
2023/05/16 07:12:57;;;;;;;6.20;2.43;;;17.90;89.80;;;;;;4999936;28;20440;-87
2023/05/16 07:15:22;;;;;;;4.03;2.00;;;17.90;89.70;;;;;;4999783;28;20438;-87
2023/05/16 07:17:49;;;;;;;4.63;2.10;;;17.90;89.60;;;;;;4999890;28;20558;-88
2023/05/16 07:20:18;;;;;;;5.10;2.33;;;17.90;89.50;;;;;;4999777;28;20451;-87
2023/05/16 07:22:44;;;;;;;6.30;2.63;;;17.80;89.20;;;;;;4967441;28;20547;-88
2023/05/16 07:25:11;;;;;;;5.90;2.37;;;17.90;89.10;;;;;;4967574;28;20471;-88
2023/05/16 07:27:40;;;;;;;5.30;3.10;;;17.80;89.00;;;;;;4967148;28;20786;-89
2023/05/16 07:30:08;;;;;;;7.30;2.73;;;17.80;89.10;;;;;;4999718;28;20412;-89
2023/05/16 07:32:34;;;;;;;8.03;3.10;;;17.80;89.20;;;;;;4983551;28;20423;-88
2023/05/16 07:35:04;;;;;;;8.17;3.67;;;17.80;89.00;;;;;;4983949;28;20416;-88
2023/05/16 07:37:30;;;;;;;11.20;4.77;;;17.80;88.90;;;;;;5014950;28;20471;-88
2023/05/16 07:40:02;;;;;;;10.70;4.63;;;17.80;88.80;;;;;;4964381;28;20546;-89
2023/05/16 07:42:28;;;;;;;18.90;9.87;;;17.80;88.80;;;;;;4964269;28;20420;-89
2023/05/16 07:44:56;;;;;;;20.67;10.60;;;17.70;88.60;;;;;;4961227;28;20447;-89
2023/05/16 07:47:22;;;;;;;16.33;10.03;;;17.70;88.60;;;;;;4977269;28;20432;-90
2023/05/16 07:49:50;;;;;;;13.23;8.20;;;17.70;88.70;;;;;;4960987;28;20469;-89
2023/05/16 07:52:26;;;;;;;13.00;6.37;;;17.70;88.70;;;;;;4976627;28;20461;-90
2023/05/16 07:54:52;;;;;;;13.03;7.30;;;17.70;88.70;;;;;;4960870;28;20523;-90
2023/05/16 07:57:18;;;;;;;13.87;7.30;;;17.70;88.80;;;;;;4960570;28;21030;-90
2023/05/16 07:59:45;;;;;;;12.83;6.53;;;17.70;88.80;;;;;;4960672;28;20448;-89
2023/05/16 08:02:11;;;;;;;9.40;6.37;;;17.70;88.80;;;;;;4976579;28;20508;-90
2023/05/16 08:04:40;;;;;;;10.70;7.27;;;17.70;88.70;;;;;;4937398;29;21037;-90
2023/05/16 08:07:06;;;;;;;11.17;6.70;;;17.70;88.40;;;;;;4906125;29;20439;-91
2023/05/16 08:09:32;;;;;;;9.60;7.03;;;17.70;88.10;;;;;;4890281;29;20466;-91
2023/05/16 08:12:02;;;;;;;11.50;6.87;;;17.70;88.10;;;;;;4890065;29;20447;-89
2023/05/16 08:14:33;;;;;;;13.97;8.67;;;17.70;87.90;;;;;;4922173;29;20474;-91
2023/05/16 08:16:59;;;;;;;13.57;8.70;;;17.70;87.70;;;;;;4921804;29;20474;-89
2023/05/16 08:19:28;;;;;;;11.50;8.10;;;17.70;87.50;;;;;;4908659;29;20458;-92
2023/05/16 08:21:55;;;;;;;14.13;7.83;;;17.60;87.40;;;;;;4905867;29;20845;-89
2023/05/16 08:24:21;;;;;;;11.90;7.70;;;17.60;87.10;;;;;;4890214;29;20424;-90
2023/05/16 08:26:47;;;;;;;10.47;6.93;;;17.60;86.80;;;;;;4893777;29;20837;-89
2023/05/16 08:29:13;;;;;;;10.10;6.40;;;17.60;86.70;;;;;;4890345;29;20415;-91
2023/05/16 08:31:39;;;;;;;8.70;6.50;;;17.60;86.60;;;;;;4920912;29;20428;-88
2023/05/16 08:34:09;;;;;;;10.20;5.80;;;17.60;86.60;;;;;;4890024;29;20439;-90
2023/05/16 08:36:38;;;;;;;9.63;5.50;;;17.60;86.70;;;;;;4954877;28;20476;-87
2023/05/16 08:39:06;;;;;;;9.10;5.30;;;17.70;86.80;;;;;;4975910;28;20450;-89
2023/05/16 08:41:32;;;;;;;9.93;5.80;;;17.70;86.50;;;;;;4943484;28;20895;-90
2023/05/16 08:43:58;;;;;;;8.17;5.40;;;17.70;86.40;;;;;;4959795;28;20436;-89
2023/05/16 08:46:27;;;;;;;9.83;4.60;;;17.70;86.20;;;;;;4960216;28;20521;-89
2023/05/16 08:48:53;;;;;;;6.10;4.67;;;17.70;86.10;;;;;;4959964;28;20491;-90
2023/05/16 08:51:20;;;;;;;7.70;4.00;;;17.70;86.40;;;;;;4975907;28;20574;-89
2023/05/16 08:53:58;;;;;;;8.63;4.20;;;17.70;86.50;;;;;;4976873;28;20739;-89
2023/05/16 08:56:25;;;;;;;7.40;4.20;;;17.70;86.10;;;;;;4975718;28;20500;-90
2023/05/16 08:58:54;;;;;;;6.43;4.07;;;17.70;86.40;;;;;;4959748;28;20921;-90
2023/05/16 09:01:21;;;;;;;7.43;4.30;;;17.70;86.70;;;;;;4949722;28;20460;-91
2023/05/16 09:03:52;;;;;;;7.07;4.00;;;17.70;86.70;;;;;;4939815;28;20489;-92
2023/05/16 09:06:18;;;;;;;7.07;4.10;;;17.70;86.70;;;;;;4936439;28;20448;-91
2023/05/16 09:08:45;;;;;;;13.43;3.50;;;17.80;86.90;;;;;;4960182;28;20800;-92
2023/05/16 09:11:11;;;;;;;5.30;3.33;;;17.80;86.80;;;;;;4947422;28;20414;-90
2023/05/16 09:13:38;;;;;;;5.10;3.70;;;17.80;86.80;;;;;;4964316;28;20438;-94
2023/05/16 09:16:14;;;;;;;10.33;4.97;;;17.80;86.80;;;;;;4979165;28;20444;-93
2023/05/16 09:18:43;;;;;;;6.67;3.40;;;17.80;86.80;;;;;;4948134;28;20563;-93
2023/05/16 09:21:11;;;;;;;3.70;3.10;;;17.80;86.90;;;;;;4947938;28;20562;-94
2023/05/16 09:23:37;;;;;;;5.00;2.67;;;17.80;86.80;;;;;;4979436;28;20457;-93
2023/05/16 09:26:06;;;;;;;5.87;3.03;;;17.80;86.70;;;;;;4947284;28;20430;-95
2023/05/16 09:28:37;;;;;;;6.63;3.17;;;17.80;86.60;;;;;;4947374;28;20452;-95
2023/05/16 09:31:03;;;;;;;9.67;2.57;;;17.80;86.20;;;;;;4979359;28;20478;-94
2023/05/16 09:33:29;;;;;;;6.83;2.63;;;17.80;86.10;;;;;;4963583;28;20758;-94
2023/05/16 09:35:59;;;;;;;4.37;2.40;;;17.80;85.50;;;;;;4947848;28;20559;-93
2023/05/16 09:38:27;;;;;;;4.13;2.67;;;17.80;85.00;;;;;;4947167;28;20471;-93
2023/05/16 09:40:54;;;;;;;3.70;2.10;;;17.80;85.20;;;;;;4979403;28;20453;-92
2023/05/16 09:43:25;;;;;;;5.13;2.23;;;17.80;85.30;;;;;;4947951;28;20814;-92
2023/05/16 09:45:52;;;;;;;5.20;2.50;;;17.90;85.50;;;;;;4963787;28;20765;-92
2023/05/16 09:48:20;;;;;;;6.70;2.10;;;17.90;85.50;;;;;;4963727;28;20464;-91
2023/05/16 09:50:51;;;;;;;3.80;2.27;;;17.90;85.40;;;;;;4963961;28;20445;-94
2023/05/16 09:53:38;;;;;;;3.80;2.30;;;17.90;85.50;;;;;;4936569;28;20435;-96
2023/05/16 09:56:06;;;;;;;4.17;2.17;;;17.90;84.50;;;;;;4929268;28;20914;-95
2023/05/16 09:58:40;;;;;;;4.93;2.20;;;17.90;84.40;;;;;;4928991;28;20512;-95
2023/05/16 10:01:11;;;;;;;5.47;2.00;;;18.00;84.80;;;;;;4961157;28;20447;-94
2023/05/16 10:03:39;;;;;;;2.97;1.73;;;18.00;85.00;;;;;;4928523;28;20453;-94
2023/05/16 10:06:06;;;;;;;2.33;1.90;;;18.00;85.30;;;;;;4928873;28;20791;-92
2023/05/16 10:08:35;;;;;;;3.90;2.00;;;18.00;85.20;;;;;;4952350;28;20797;-93
2023/05/16 10:11:03;;;;;;;2.40;1.80;;;18.00;84.90;;;;;;4966842;28;20432;-94
2023/05/16 10:13:31;;;;;;;3.17;1.83;;;18.10;84.80;;;;;;4967008;28;20439;-90
2023/05/16 10:15:59;;;;;;;3.87;1.70;;;18.10;84.80;;;;;;4967298;28;20490;-90
2023/05/16 10:18:30;;;;;;;5.40;2.30;;;18.10;85.00;;;;;;4966219;28;20475;-92
2023/05/16 10:21:02;;;;;;;4.10;2.27;;;18.10;84.80;;;;;;4966703;28;20462;-95
2023/05/16 10:23:30;;;;;;;3.23;1.90;;;18.10;84.90;;;;;;4986749;28;20431;-91
2023/05/16 10:25:57;;;;;;;5.20;1.93;;;18.10;85.20;;;;;;4970336;28;20467;-93
2023/05/16 10:28:23;;;;;;;3.57;2.00;;;18.10;85.30;;;;;;4970451;28;20423;-92
2023/05/16 10:30:51;;;;;;;4.60;2.10;;;18.10;84.90;;;;;;4970815;28;20428;-93
2023/05/16 10:33:18;;;;;;;3.20;1.77;;;18.10;84.80;;;;;;4970120;28;20776;-95
2023/05/16 10:35:45;;;;;;;2.40;1.73;;;18.10;85.30;;;;;;4969884;28;20434;-92
2023/05/16 10:38:17;;;;;;;3.00;1.73;;;18.10;84.00;;;;;;4969491;28;20467;-94
2023/05/16 10:40:46;;;;;;;2.53;1.90;;;18.10;83.60;;;;;;4967357;28;20590;-92
2023/05/16 10:43:43;;;;;;;4.00;1.63;;;18.10;83.60;;;;;;4959839;28;20425;-93
2023/05/16 10:46:10;;;;;;;4.20;1.90;;;18.20;83.60;;;;;;4948228;28;20457;-94
2023/05/16 10:48:38;;;;;;;5.03;1.80;;;18.20;83.10;;;;;;4930903;28;20434;-94
2023/05/16 10:51:22;;;;;;;3.17;1.70;;;18.20;83.30;;;;;;4966595;28;20535;-89
2023/05/16 10:54:11;;;;;;;5.07;2.10;;;18.20;83.00;;;;;;4930659;28;20425;-92
2023/05/16 10:56:40;;;;;;;3.07;2.03;;;18.20;83.10;;;;;;4954951;28;20752;-92
2023/05/16 10:59:23;;;;;;;5.67;2.20;;;18.20;83.30;;;;;;4960050;28;20453;-92
2023/05/16 11:01:55;;;;;;;6.43;1.60;;;18.20;83.40;;;;;;4968576;28;20492;-90
2023/05/16 11:04:21;;;;;;;4.10;1.80;;;18.20;83.80;;;;;;4946271;28;20509;-92
2023/05/16 11:06:52;;;;;;;3.37;1.93;;;18.20;83.70;;;;;;4947002;28;20421;-92
2023/05/16 11:09:22;;;;;;;4.77;2.00;;;18.20;83.60;;;;;;4946452;28;20895;-91
2023/05/16 11:11:51;;;;;;;3.93;2.10;;;18.20;84.00;;;;;;4946052;28;20543;-91
2023/05/16 11:14:33;;;;;;;7.03;1.90;;;18.20;84.20;;;;;;4930389;28;20452;-92
2023/05/16 11:17:13;;;;;;;8.40;2.00;;;18.20;84.30;;;;;;4945825;28;20472;-93
2023/05/16 11:19:42;;;;;;;3.60;1.90;;;18.20;84.10;;;;;;4961989;28;20412;-92
2023/05/16 11:22:39;;;;;;;2.77;1.80;;;18.20;83.40;;;;;;4945976;28;20434;-92
2023/05/16 11:25:08;;;;;;;2.50;1.80;;;18.30;84.00;;;;;;4945980;28;20553;-92
2023/05/16 11:27:42;;;;;;;3.60;1.90;;;18.30;84.00;;;;;;4962000;28;20425;-93
2023/05/16 11:30:12;;;;;;;5.03;2.00;;;18.30;83.90;;;;;;4978462;28;20432;-94
2023/05/16 11:32:43;;;;;;;6.90;1.60;;;18.30;83.60;;;;;;4961429;28;20434;-89
2023/05/16 11:35:14;;;;;;;2.77;1.50;;;18.30;83.50;;;;;;4929782;28;20504;-93
2023/05/16 11:37:40;;;;;;;3.43;1.87;;;18.40;83.80;;;;;;4945844;28;20480;-93
2023/05/16 11:40:08;;;;;;;3.77;1.87;;;18.40;83.70;;;;;;4945719;28;20438;-95
2023/05/16 11:42:36;;;;;;;5.27;2.23;;;18.40;82.70;;;;;;4977534;28;20528;-91
2023/05/16 11:45:08;;;;;;;3.80;2.17;;;18.50;83.00;;;;;;4962028;28;20457;-92
2023/05/16 11:47:38;;;;;;;4.93;1.60;;;18.50;83.20;;;;;;4929863;28;20426;-92
2023/05/16 11:50:25;;;;;;;1.90;1.73;;;18.50;83.30;;;;;;4945225;28;20506;-92
2023/05/16 11:52:53;;;;;;;2.47;1.87;;;18.50;83.60;;;;;;4945496;28;20421;-92
2023/05/16 11:55:25;;;;;;;2.73;1.60;;;18.50;83.30;;;;;;4956606;28;20443;-91
2023/05/16 11:57:51;;;;;;;2.07;1.63;;;18.50;83.40;;;;;;4999749;28;20862;-92
2023/05/16 12:00:23;;;;;;;3.00;1.60;;;18.50;83.00;;;;;;5000010;28;20428;-90
2023/05/16 12:02:50;;;;;;;3.17;1.63;;;18.50;82.40;;;;;;4983756;28;20412;-92
2023/05/16 12:05:17;;;;;;;2.90;1.53;;;18.50;82.30;;;;;;4984495;28;20730;-92
2023/05/16 12:07:44;;;;;;;3.43;1.90;;;18.60;82.70;;;;;;4983801;28;20772;-91
2023/05/16 12:10:15;;;;;;;3.17;1.40;;;18.50;83.00;;;;;;4967651;28;20491;-91
2023/05/16 12:12:44;;;;;;;5.63;1.90;;;18.60;83.30;;;;;;4975710;28;20768;-90
2023/05/16 12:15:11;;;;;;;2.70;1.60;;;18.60;83.30;;;;;;4963957;28;20501;-92
2023/05/16 12:17:39;;;;;;;4.33;1.50;;;18.60;83.10;;;;;;4964246;28;20506;-90
2023/05/16 12:20:10;;;;;;;3.80;1.90;;;18.60;82.90;;;;;;4980267;28;20901;-91
2023/05/16 12:22:39;;;;;;;3.10;1.50;;;18.60;82.60;;;;;;4963927;28;20513;-90
2023/05/16 12:25:27;;;;;;;2.83;1.30;;;18.60;82.90;;;;;;4964019;28;20448;-91
2023/05/16 12:28:01;;;;;;;3.23;1.70;;;18.60;82.80;;;;;;4970888;28;20478;-91
2023/05/16 12:30:28;;;;;;;2.83;1.33;;;18.60;82.50;;;;;;4983185;28;20443;-91
2023/05/16 12:33:01;;;;;;;3.57;1.67;;;18.70;82.70;;;;;;4983243;28;20428;-94
2023/05/16 12:35:32;;;;;;;1.83;1.40;;;18.70;82.80;;;;;;4966958;28;21073;-92
2023/05/16 12:37:58;;;;;;;3.33;1.23;;;18.70;82.30;;;;;;4967175;28;20767;-92
2023/05/16 12:40:30;;;;;;;2.47;1.37;;;18.70;82.50;;;;;;4967464;28;20435;-91
2023/05/16 12:42:57;;;;;;;3.60;1.20;;;18.70;82.40;;;;;;4967138;28;20464;-91
2023/05/16 12:45:23;;;;;;;2.90;1.50;;;18.80;82.20;;;;;;4999220;28;20417;-93
2023/05/16 12:47:49;;;;;;;2.90;1.43;;;18.80;82.60;;;;;;4983102;28;20435;-93
2023/05/16 12:50:18;;;;;;;2.23;1.40;;;18.80;82.40;;;;;;4966920;28;20433;-93
2023/05/16 12:52:52;;;;;;;3.83;1.60;;;18.80;82.00;;;;;;5016363;28;20522;-92
2023/05/16 12:55:21;;;;;;;3.23;1.60;;;18.80;81.90;;;;;;4983304;28;20749;-94